sensor_id;sensor_type;location;lat;lon;timestamp;P1;durP1;ratioP1;P2;durP2;ratioP2
8861;SDS011;4799;50.996;4.754;2023-05-10T00:01:07;18.53;;;16.63;;
8861;SDS011;4799;50.996;4.754;2023-05-10T00:03:33;19.10;;;17.10;;
8861;SDS011;4799;50.996;4.754;2023-05-10T00:05:59;20.03;;;17.93;;
8861;SDS011;4799;50.996;4.754;2023-05-10T00:08:25;18.57;;;16.70;;
8861;SDS011;4799;50.996;4.754;2023-05-10T00:10:51;16.83;;;15.03;;
8861;SDS011;4799;50.996;4.754;2023-05-10T00:13:17;17.97;;;16.07;;
8861;SDS011;4799;50.996;4.754;2023-05-10T00:15:43;16.33;;;14.60;;
8861;SDS011;4799;50.996;4.754;2023-05-10T00:18:09;14.93;;;13.43;;
8861;SDS011;4799;50.996;4.754;2023-05-10T00:20:34;15.43;;;13.90;;
8861;SDS011;4799;50.996;4.754;2023-05-10T00:23:00;15.67;;;13.97;;
8861;SDS011;4799;50.996;4.754;2023-05-10T00:25:26;13.27;;;11.93;;
8861;SDS011;4799;50.996;4.754;2023-05-10T00:27:52;15.53;;;12.87;;
8861;SDS011;4799;50.996;4.754;2023-05-10T00:30:20;13.00;;;11.60;;
8861;SDS011;4799;50.996;4.754;2023-05-10T00:32:46;13.17;;;11.73;;
8861;SDS011;4799;50.996;4.754;2023-05-10T00:35:13;13.63;;;11.27;;
8861;SDS011;4799;50.996;4.754;2023-05-10T00:37:38;13.13;;;11.20;;
8861;SDS011;4799;50.996;4.754;2023-05-10T00:40:05;13.13;;;11.27;;
8861;SDS011;4799;50.996;4.754;2023-05-10T00:42:31;15.13;;;11.47;;
8861;SDS011;4799;50.996;4.754;2023-05-10T00:44:57;12.03;;;10.07;;
8861;SDS011;4799;50.996;4.754;2023-05-10T00:47:23;12.60;;;11.30;;
8861;SDS011;4799;50.996;4.754;2023-05-10T00:49:48;11.33;;;10.13;;
8861;SDS011;4799;50.996;4.754;2023-05-10T00:52:15;17.00;;;10.73;;
8861;SDS011;4799;50.996;4.754;2023-05-10T00:54:41;15.03;;;11.17;;
8861;SDS011;4799;50.996;4.754;2023-05-10T00:57:07;14.47;;;10.70;;
8861;SDS011;4799;50.996;4.754;2023-05-10T00:59:33;12.63;;;10.27;;
8861;SDS011;4799;50.996;4.754;2023-05-10T01:01:59;14.83;;;10.50;;
8861;SDS011;4799;50.996;4.754;2023-05-10T01:04:24;15.50;;;11.13;;
8861;SDS011;4799;50.996;4.754;2023-05-10T01:06:53;12.10;;;9.93;;
8861;SDS011;4799;50.996;4.754;2023-05-10T01:09:20;13.20;;;11.47;;
8861;SDS011;4799;50.996;4.754;2023-05-10T01:11:46;13.83;;;10.73;;
8861;SDS011;4799;50.996;4.754;2023-05-10T01:14:13;14.73;;;11.47;;
8861;SDS011;4799;50.996;4.754;2023-05-10T01:16:41;14.53;;;11.43;;
8861;SDS011;4799;50.996;4.754;2023-05-10T01:19:12;14.17;;;11.90;;
8861;SDS011;4799;50.996;4.754;2023-05-10T01:27:25;12.60;;;11.27;;
8861;SDS011;4799;50.996;4.754;2023-05-10T01:36:09;13.33;;;11.93;;
8861;SDS011;4799;50.996;4.754;2023-05-10T01:39:05;14.57;;;12.10;;
8861;SDS011;4799;50.996;4.754;2023-05-10T01:47:33;15.03;;;12.80;;
8861;SDS011;4799;50.996;4.754;2023-05-10T01:50:04;15.63;;;13.03;;
8861;SDS011;4799;50.996;4.754;2023-05-10T01:52:38;16.63;;;13.70;;
8861;SDS011;4799;50.996;4.754;2023-05-10T01:55:08;17.93;;;14.03;;
8861;SDS011;4799;50.996;4.754;2023-05-10T01:57:36;16.33;;;13.67;;
8861;SDS011;4799;50.996;4.754;2023-05-10T02:00:04;16.07;;;14.10;;
8861;SDS011;4799;50.996;4.754;2023-05-10T02:02:33;17.00;;;13.57;;
8861;SDS011;4799;50.996;4.754;2023-05-10T02:05:07;17.97;;;14.67;;
8861;SDS011;4799;50.996;4.754;2023-05-10T02:07:35;19.33;;;13.73;;
8861;SDS011;4799;50.996;4.754;2023-05-10T02:10:05;16.10;;;12.63;;
8861;SDS011;4799;50.996;4.754;2023-05-10T02:12:36;14.40;;;12.80;;
8861;SDS011;4799;50.996;4.754;2023-05-10T02:15:06;17.80;;;14.47;;
8861;SDS011;4799;50.996;4.754;2023-05-10T02:17:34;16.23;;;14.10;;
8861;SDS011;4799;50.996;4.754;2023-05-10T02:20:02;16.40;;;13.93;;
8861;SDS011;4799;50.996;4.754;2023-05-10T02:22:29;17.43;;;15.60;;
8861;SDS011;4799;50.996;4.754;2023-05-10T02:24:56;16.27;;;14.03;;
8861;SDS011;4799;50.996;4.754;2023-05-10T02:27:25;19.53;;;14.63;;
8861;SDS011;4799;50.996;4.754;2023-05-10T02:29:53;16.73;;;14.20;;
8861;SDS011;4799;50.996;4.754;2023-05-10T02:32:20;18.07;;;14.27;;
8861;SDS011;4799;50.996;4.754;2023-05-10T02:34:47;17.30;;;15.50;;
8861;SDS011;4799;50.996;4.754;2023-05-10T02:37:17;17.17;;;15.13;;
8861;SDS011;4799;50.996;4.754;2023-05-10T02:39:52;17.67;;;15.63;;
8861;SDS011;4799;50.996;4.754;2023-05-10T02:42:22;17.23;;;15.20;;
8861;SDS011;4799;50.996;4.754;2023-05-10T02:44:50;18.17;;;16.27;;
8861;SDS011;4799;50.996;4.754;2023-05-10T02:47:18;18.67;;;16.30;;
8861;SDS011;4799;50.996;4.754;2023-05-10T02:49:44;19.20;;;16.93;;
8861;SDS011;4799;50.996;4.754;2023-05-10T02:52:10;18.43;;;16.30;;
8861;SDS011;4799;50.996;4.754;2023-05-10T02:54:45;19.40;;;17.23;;
8861;SDS011;4799;50.996;4.754;2023-05-10T02:57:16;18.17;;;16.30;;
8861;SDS011;4799;50.996;4.754;2023-05-10T02:59:47;18.50;;;16.60;;
8861;SDS011;4799;50.996;4.754;2023-05-10T03:02:13;18.77;;;16.83;;
8861;SDS011;4799;50.996;4.754;2023-05-10T03:04:39;19.17;;;17.27;;
8861;SDS011;4799;50.996;4.754;2023-05-10T03:07:04;20.97;;;17.53;;
8861;SDS011;4799;50.996;4.754;2023-05-10T03:09:30;18.33;;;16.40;;
8861;SDS011;4799;50.996;4.754;2023-05-10T03:14:42;19.10;;;16.87;;
8861;SDS011;4799;50.996;4.754;2023-05-10T03:17:30;18.67;;;16.73;;
8861;SDS011;4799;50.996;4.754;2023-05-10T03:20:12;17.07;;;15.27;;
8861;SDS011;4799;50.996;4.754;2023-05-10T03:25:32;17.93;;;15.97;;
8861;SDS011;4799;50.996;4.754;2023-05-10T03:28:00;18.47;;;15.97;;
8861;SDS011;4799;50.996;4.754;2023-05-10T03:30:27;19.43;;;17.43;;
8861;SDS011;4799;50.996;4.754;2023-05-10T03:32:54;22.07;;;17.57;;
8861;SDS011;4799;50.996;4.754;2023-05-10T03:35:20;19.70;;;17.60;;
8861;SDS011;4799;50.996;4.754;2023-05-10T03:37:46;20.10;;;17.67;;
8861;SDS011;4799;50.996;4.754;2023-05-10T03:40:12;21.33;;;17.63;;
8861;SDS011;4799;50.996;4.754;2023-05-10T03:42:38;20.03;;;17.77;;
8861;SDS011;4799;50.996;4.754;2023-05-10T03:45:04;20.37;;;17.63;;
8861;SDS011;4799;50.996;4.754;2023-05-10T03:47:30;20.97;;;18.77;;
8861;SDS011;4799;50.996;4.754;2023-05-10T03:49:56;21.63;;;19.33;;
8861;SDS011;4799;50.996;4.754;2023-05-10T03:52:22;21.67;;;19.33;;
8861;SDS011;4799;50.996;4.754;2023-05-10T03:54:47;22.30;;;19.87;;
8861;SDS011;4799;50.996;4.754;2023-05-10T03:57:13;22.50;;;19.80;;
8861;SDS011;4799;50.996;4.754;2023-05-10T03:59:39;22.53;;;20.13;;
8861;SDS011;4799;50.996;4.754;2023-05-10T04:02:05;24.47;;;21.30;;
8861;SDS011;4799;50.996;4.754;2023-05-10T04:04:30;22.77;;;20.37;;
8861;SDS011;4799;50.996;4.754;2023-05-10T04:06:56;24.80;;;21.30;;
8861;SDS011;4799;50.996;4.754;2023-05-10T04:09:22;24.40;;;20.93;;
8861;SDS011;4799;50.996;4.754;2023-05-10T04:11:48;26.67;;;21.90;;
8861;SDS011;4799;50.996;4.754;2023-05-10T04:14:13;25.03;;;22.30;;
8861;SDS011;4799;50.996;4.754;2023-05-10T04:16:39;26.27;;;22.60;;
8861;SDS011;4799;50.996;4.754;2023-05-10T04:19:05;28.07;;;24.03;;
8861;SDS011;4799;50.996;4.754;2023-05-10T04:21:31;26.53;;;23.63;;
8861;SDS011;4799;50.996;4.754;2023-05-10T04:23:57;28.00;;;24.47;;
8861;SDS011;4799;50.996;4.754;2023-05-10T04:26:23;27.30;;;24.17;;
8861;SDS011;4799;50.996;4.754;2023-05-10T04:28:50;29.10;;;24.13;;
8861;SDS011;4799;50.996;4.754;2023-05-10T04:31:16;32.27;;;25.60;;
8861;SDS011;4799;50.996;4.754;2023-05-10T04:33:42;29.23;;;24.57;;
8861;SDS011;4799;50.996;4.754;2023-05-10T04:36:08;32.83;;;26.23;;
8861;SDS011;4799;50.996;4.754;2023-05-10T04:38:33;33.67;;;25.87;;
8861;SDS011;4799;50.996;4.754;2023-05-10T04:41:09;35.70;;;27.23;;
8861;SDS011;4799;50.996;4.754;2023-05-10T04:43:35;32.77;;;26.37;;
8861;SDS011;4799;50.996;4.754;2023-05-10T04:46:02;32.70;;;26.37;;
8861;SDS011;4799;50.996;4.754;2023-05-10T04:48:28;35.93;;;26.70;;
8861;SDS011;4799;50.996;4.754;2023-05-10T04:50:54;40.00;;;28.20;;
8861;SDS011;4799;50.996;4.754;2023-05-10T04:53:20;36.23;;;28.53;;
8861;SDS011;4799;50.996;4.754;2023-05-10T04:55:46;39.87;;;29.57;;
8861;SDS011;4799;50.996;4.754;2023-05-10T04:58:13;41.97;;;31.13;;
8861;SDS011;4799;50.996;4.754;2023-05-10T05:00:39;43.30;;;31.17;;
8861;SDS011;4799;50.996;4.754;2023-05-10T05:03:05;42.10;;;31.87;;
8861;SDS011;4799;50.996;4.754;2023-05-10T05:05:31;47.53;;;33.33;;
8861;SDS011;4799;50.996;4.754;2023-05-10T05:07:57;44.87;;;32.40;;
8861;SDS011;4799;50.996;4.754;2023-05-10T05:10:22;45.07;;;31.73;;
8861;SDS011;4799;50.996;4.754;2023-05-10T05:12:48;50.33;;;34.93;;
8861;SDS011;4799;50.996;4.754;2023-05-10T05:15:14;43.93;;;31.97;;
8861;SDS011;4799;50.996;4.754;2023-05-10T05:17:41;49.00;;;34.20;;
8861;SDS011;4799;50.996;4.754;2023-05-10T05:20:10;47.17;;;33.37;;
8861;SDS011;4799;50.996;4.754;2023-05-10T05:22:37;54.00;;;36.10;;
8861;SDS011;4799;50.996;4.754;2023-05-10T05:25:03;50.87;;;35.27;;
8861;SDS011;4799;50.996;4.754;2023-05-10T05:27:29;47.47;;;34.60;;
8861;SDS011;4799;50.996;4.754;2023-05-10T05:29:55;49.27;;;35.17;;
8861;SDS011;4799;50.996;4.754;2023-05-10T05:32:21;45.77;;;34.37;;
8861;SDS011;4799;50.996;4.754;2023-05-10T05:34:47;46.90;;;34.93;;
8861;SDS011;4799;50.996;4.754;2023-05-10T05:37:17;44.97;;;34.40;;
8861;SDS011;4799;50.996;4.754;2023-05-10T05:39:44;44.43;;;34.03;;
8861;SDS011;4799;50.996;4.754;2023-05-10T05:42:11;48.10;;;36.33;;
8861;SDS011;4799;50.996;4.754;2023-05-10T05:44:37;46.10;;;35.80;;
8861;SDS011;4799;50.996;4.754;2023-05-10T05:47:03;44.47;;;35.07;;
8861;SDS011;4799;50.996;4.754;2023-05-10T05:49:29;45.73;;;34.97;;
8861;SDS011;4799;50.996;4.754;2023-05-10T05:51:59;44.33;;;35.33;;
8861;SDS011;4799;50.996;4.754;2023-05-10T05:54:26;42.07;;;33.80;;
8861;SDS011;4799;50.996;4.754;2023-05-10T05:56:55;41.97;;;32.20;;
8861;SDS011;4799;50.996;4.754;2023-05-10T05:59:22;42.90;;;33.20;;
8861;SDS011;4799;50.996;4.754;2023-05-10T06:01:47;42.80;;;32.43;;
8861;SDS011;4799;50.996;4.754;2023-05-10T06:04:13;36.37;;;29.33;;
8861;SDS011;4799;50.996;4.754;2023-05-10T06:06:39;36.13;;;29.30;;
8861;SDS011;4799;50.996;4.754;2023-05-10T06:09:05;33.83;;;29.50;;
8861;SDS011;4799;50.996;4.754;2023-05-10T06:11:30;34.53;;;29.33;;
8861;SDS011;4799;50.996;4.754;2023-05-10T06:13:59;29.20;;;26.00;;
8861;SDS011;4799;50.996;4.754;2023-05-10T06:16:26;32.80;;;27.67;;
8861;SDS011;4799;50.996;4.754;2023-05-10T06:18:52;29.93;;;26.63;;
8861;SDS011;4799;50.996;4.754;2023-05-10T06:21:18;28.47;;;25.43;;
8861;SDS011;4799;50.996;4.754;2023-05-10T06:23:43;31.07;;;26.20;;
8861;SDS011;4799;50.996;4.754;2023-05-10T06:26:09;26.90;;;23.53;;
8861;SDS011;4799;50.996;4.754;2023-05-10T06:28:35;26.47;;;23.70;;
8861;SDS011;4799;50.996;4.754;2023-05-10T06:31:03;26.83;;;23.90;;
8861;SDS011;4799;50.996;4.754;2023-05-10T06:33:29;26.20;;;23.50;;
8861;SDS011;4799;50.996;4.754;2023-05-10T06:35:56;26.33;;;23.53;;
8861;SDS011;4799;50.996;4.754;2023-05-10T06:38:22;25.80;;;23.10;;
8861;SDS011;4799;50.996;4.754;2023-05-10T06:40:48;25.00;;;22.33;;
8861;SDS011;4799;50.996;4.754;2023-05-10T06:43:14;26.90;;;24.00;;
8861;SDS011;4799;50.996;4.754;2023-05-10T06:45:39;25.80;;;23.20;;
8861;SDS011;4799;50.996;4.754;2023-05-10T06:48:06;24.10;;;21.70;;
8861;SDS011;4799;50.996;4.754;2023-05-10T06:50:32;23.97;;;21.47;;
8861;SDS011;4799;50.996;4.754;2023-05-10T06:52:58;23.97;;;21.40;;
8861;SDS011;4799;50.996;4.754;2023-05-10T06:55:24;23.47;;;21.00;;
8861;SDS011;4799;50.996;4.754;2023-05-10T06:57:50;22.90;;;20.60;;
8861;SDS011;4799;50.996;4.754;2023-05-10T07:00:16;23.43;;;21.07;;
8861;SDS011;4799;50.996;4.754;2023-05-10T07:02:43;23.73;;;21.33;;
8861;SDS011;4799;50.996;4.754;2023-05-10T07:05:08;22.73;;;20.33;;
8861;SDS011;4799;50.996;4.754;2023-05-10T07:07:34;21.97;;;19.77;;
8861;SDS011;4799;50.996;4.754;2023-05-10T07:10:00;22.60;;;20.33;;
8861;SDS011;4799;50.996;4.754;2023-05-10T07:12:26;25.13;;;22.53;;
8861;SDS011;4799;50.996;4.754;2023-05-10T07:14:52;23.80;;;21.50;;
8861;SDS011;4799;50.996;4.754;2023-05-10T07:17:18;23.10;;;20.77;;
8861;SDS011;4799;50.996;4.754;2023-05-10T07:19:44;21.83;;;19.73;;
8861;SDS011;4799;50.996;4.754;2023-05-10T07:22:09;23.93;;;21.53;;
8861;SDS011;4799;50.996;4.754;2023-05-10T07:24:35;22.83;;;20.43;;
8861;SDS011;4799;50.996;4.754;2023-05-10T07:27:01;21.93;;;19.57;;
8861;SDS011;4799;50.996;4.754;2023-05-10T07:29:27;21.33;;;19.23;;
8861;SDS011;4799;50.996;4.754;2023-05-10T07:31:53;20.97;;;18.87;;
8861;SDS011;4799;50.996;4.754;2023-05-10T07:34:19;21.17;;;19.07;;
8861;SDS011;4799;50.996;4.754;2023-05-10T07:36:45;19.93;;;18.03;;
8861;SDS011;4799;50.996;4.754;2023-05-10T07:39:11;20.77;;;18.87;;
8861;SDS011;4799;50.996;4.754;2023-05-10T07:41:37;19.70;;;17.80;;
8861;SDS011;4799;50.996;4.754;2023-05-10T07:44:03;19.43;;;17.63;;
8861;SDS011;4799;50.996;4.754;2023-05-10T07:46:30;18.83;;;16.93;;
8861;SDS011;4799;50.996;4.754;2023-05-10T07:48:55;18.97;;;17.07;;
8861;SDS011;4799;50.996;4.754;2023-05-10T07:51:21;17.37;;;15.77;;
8861;SDS011;4799;50.996;4.754;2023-05-10T07:53:47;18.83;;;17.03;;
8861;SDS011;4799;50.996;4.754;2023-05-10T07:56:21;17.70;;;15.97;;
8861;SDS011;4799;50.996;4.754;2023-05-10T07:58:48;17.30;;;15.73;;
8861;SDS011;4799;50.996;4.754;2023-05-10T08:01:14;19.23;;;17.17;;
8861;SDS011;4799;50.996;4.754;2023-05-10T08:03:40;18.00;;;16.20;;
8861;SDS011;4799;50.996;4.754;2023-05-10T08:06:05;18.87;;;16.97;;
8861;SDS011;4799;50.996;4.754;2023-05-10T08:08:31;19.10;;;17.20;;
8861;SDS011;4799;50.996;4.754;2023-05-10T08:10:57;17.93;;;16.13;;
8861;SDS011;4799;50.996;4.754;2023-05-10T08:13:22;19.33;;;17.27;;
8861;SDS011;4799;50.996;4.754;2023-05-10T08:15:48;19.57;;;17.70;;
8861;SDS011;4799;50.996;4.754;2023-05-10T08:18:14;17.17;;;15.33;;
8861;SDS011;4799;50.996;4.754;2023-05-10T08:20:40;14.90;;;13.33;;
8861;SDS011;4799;50.996;4.754;2023-05-10T08:23:05;12.77;;;11.47;;
8861;SDS011;4799;50.996;4.754;2023-05-10T08:25:31;13.03;;;11.53;;
8861;SDS011;4799;50.996;4.754;2023-05-10T08:27:57;13.20;;;11.80;;
8861;SDS011;4799;50.996;4.754;2023-05-10T08:30:23;12.10;;;10.83;;
8861;SDS011;4799;50.996;4.754;2023-05-10T08:32:48;11.33;;;10.23;;
8861;SDS011;4799;50.996;4.754;2023-05-10T08:35:15;12.03;;;10.60;;
8861;SDS011;4799;50.996;4.754;2023-05-10T08:37:41;11.73;;;10.53;;
8861;SDS011;4799;50.996;4.754;2023-05-10T08:40:07;12.47;;;11.17;;
8861;SDS011;4799;50.996;4.754;2023-05-10T08:42:36;12.60;;;11.30;;
8861;SDS011;4799;50.996;4.754;2023-05-10T08:45:07;12.97;;;11.77;;
8861;SDS011;4799;50.996;4.754;2023-05-10T08:47:35;12.83;;;11.63;;
8861;SDS011;4799;50.996;4.754;2023-05-10T08:50:02;13.80;;;12.40;;
8861;SDS011;4799;50.996;4.754;2023-05-10T08:52:29;16.07;;;12.63;;
8861;SDS011;4799;50.996;4.754;2023-05-10T08:54:57;12.27;;;11.07;;
8861;SDS011;4799;50.996;4.754;2023-05-10T08:57:23;15.27;;;13.17;;
8861;SDS011;4799;50.996;4.754;2023-05-10T08:59:49;13.57;;;12.23;;
8861;SDS011;4799;50.996;4.754;2023-05-10T09:02:15;14.33;;;12.13;;
8861;SDS011;4799;50.996;4.754;2023-05-10T09:04:43;13.50;;;12.10;;
8861;SDS011;4799;50.996;4.754;2023-05-10T09:07:09;12.53;;;11.30;;
8861;SDS011;4799;50.996;4.754;2023-05-10T09:09:36;12.30;;;10.97;;
8861;SDS011;4799;50.996;4.754;2023-05-10T09:12:02;12.23;;;10.87;;
8861;SDS011;4799;50.996;4.754;2023-05-10T09:14:28;12.53;;;10.63;;
8861;SDS011;4799;50.996;4.754;2023-05-10T09:16:55;11.73;;;10.27;;
8861;SDS011;4799;50.996;4.754;2023-05-10T09:19:21;14.17;;;10.97;;
8861;SDS011;4799;50.996;4.754;2023-05-10T09:21:47;10.47;;;9.23;;
8861;SDS011;4799;50.996;4.754;2023-05-10T09:24:14;11.07;;;9.67;;
8861;SDS011;4799;50.996;4.754;2023-05-10T09:26:47;9.87;;;8.90;;
8861;SDS011;4799;50.996;4.754;2023-05-10T09:29:13;10.40;;;9.07;;
8861;SDS011;4799;50.996;4.754;2023-05-10T09:31:43;10.83;;;9.47;;
8861;SDS011;4799;50.996;4.754;2023-05-10T09:34:19;11.17;;;9.57;;
8861;SDS011;4799;50.996;4.754;2023-05-10T09:36:51;10.40;;;9.30;;
8861;SDS011;4799;50.996;4.754;2023-05-10T09:39:19;10.90;;;9.80;;
8861;SDS011;4799;50.996;4.754;2023-05-10T09:41:45;10.67;;;9.67;;
8861;SDS011;4799;50.996;4.754;2023-05-10T09:44:11;9.77;;;8.87;;
8861;SDS011;4799;50.996;4.754;2023-05-10T09:46:46;10.27;;;9.23;;
8861;SDS011;4799;50.996;4.754;2023-05-10T09:49:14;11.10;;;9.95;;
8861;SDS011;4799;50.996;4.754;2023-05-10T09:51:40;10.75;;;9.68;;
8861;SDS011;4799;50.996;4.754;2023-05-10T09:54:10;11.63;;;9.90;;
8861;SDS011;4799;50.996;4.754;2023-05-10T09:56:37;9.43;;;8.57;;
8861;SDS011;4799;50.996;4.754;2023-05-10T09:59:05;9.47;;;8.57;;
8861;SDS011;4799;50.996;4.754;2023-05-10T10:01:31;11.00;;;9.67;;
8861;SDS011;4799;50.996;4.754;2023-05-10T10:03:58;9.10;;;8.20;;
8861;SDS011;4799;50.996;4.754;2023-05-10T10:06:24;9.53;;;8.63;;
8861;SDS011;4799;50.996;4.754;2023-05-10T10:08:50;8.83;;;7.93;;
8861;SDS011;4799;50.996;4.754;2023-05-10T10:11:16;9.23;;;8.30;;
8861;SDS011;4799;50.996;4.754;2023-05-10T10:13:42;8.50;;;7.70;;
8861;SDS011;4799;50.996;4.754;2023-05-10T10:16:08;9.37;;;7.70;;
8861;SDS011;4799;50.996;4.754;2023-05-10T10:18:35;8.63;;;7.60;;
8861;SDS011;4799;50.996;4.754;2023-05-10T10:21:07;8.43;;;7.40;;
8861;SDS011;4799;50.996;4.754;2023-05-10T10:23:36;8.33;;;7.53;;
8861;SDS011;4799;50.996;4.754;2023-05-10T10:26:03;8.10;;;7.17;;
8861;SDS011;4799;50.996;4.754;2023-05-10T10:28:40;8.20;;;7.30;;
8861;SDS011;4799;50.996;4.754;2023-05-10T10:34:11;8.63;;;6.80;;
8861;SDS011;4799;50.996;4.754;2023-05-10T10:36:53;7.63;;;6.90;;
8861;SDS011;4799;50.996;4.754;2023-05-10T10:39:19;7.20;;;6.50;;
8861;SDS011;4799;50.996;4.754;2023-05-10T10:41:49;7.30;;;6.70;;
8861;SDS011;4799;50.996;4.754;2023-05-10T10:49:48;7.77;;;6.77;;
8861;SDS011;4799;50.996;4.754;2023-05-10T10:57:44;6.57;;;5.77;;
8861;SDS011;4799;50.996;4.754;2023-05-10T11:00:22;6.17;;;5.67;;
8861;SDS011;4799;50.996;4.754;2023-05-10T11:10:35;5.53;;;4.90;;
8861;SDS011;4799;50.996;4.754;2023-05-10T11:13:02;5.77;;;5.27;;
8861;SDS011;4799;50.996;4.754;2023-05-10T11:15:43;5.90;;;5.43;;
8861;SDS011;4799;50.996;4.754;2023-05-10T11:18:17;5.73;;;5.23;;
8861;SDS011;4799;50.996;4.754;2023-05-10T11:20:49;5.87;;;5.13;;
8861;SDS011;4799;50.996;4.754;2023-05-10T11:23:16;5.80;;;5.30;;
8861;SDS011;4799;50.996;4.754;2023-05-10T11:25:43;6.40;;;5.80;;
8861;SDS011;4799;50.996;4.754;2023-05-10T11:28:12;5.90;;;5.33;;
8861;SDS011;4799;50.996;4.754;2023-05-10T11:30:39;5.50;;;5.00;;
8861;SDS011;4799;50.996;4.754;2023-05-10T11:33:06;5.37;;;4.97;;
8861;SDS011;4799;50.996;4.754;2023-05-10T11:35:39;5.77;;;5.23;;
8861;SDS011;4799;50.996;4.754;2023-05-10T11:38:12;4.53;;;4.20;;
8861;SDS011;4799;50.996;4.754;2023-05-10T11:40:39;5.00;;;4.57;;
8861;SDS011;4799;50.996;4.754;2023-05-10T11:43:05;5.07;;;4.67;;
8861;SDS011;4799;50.996;4.754;2023-05-10T11:45:33;5.53;;;4.60;;
8861;SDS011;4799;50.996;4.754;2023-05-10T11:48:00;5.40;;;4.90;;
8861;SDS011;4799;50.996;4.754;2023-05-10T11:50:26;5.37;;;4.97;;
8861;SDS011;4799;50.996;4.754;2023-05-10T11:52:53;4.97;;;4.43;;
8861;SDS011;4799;50.996;4.754;2023-05-10T11:55:20;5.10;;;4.60;;
8861;SDS011;4799;50.996;4.754;2023-05-10T11:57:46;4.93;;;3.70;;
8861;SDS011;4799;50.996;4.754;2023-05-10T12:00:13;4.50;;;4.07;;
8861;SDS011;4799;50.996;4.754;2023-05-10T12:02:39;4.53;;;4.10;;
8861;SDS011;4799;50.996;4.754;2023-05-10T12:05:05;4.40;;;4.00;;
8861;SDS011;4799;50.996;4.754;2023-05-10T12:07:31;4.47;;;4.07;;
8861;SDS011;4799;50.996;4.754;2023-05-10T12:10:07;4.60;;;4.13;;
8861;SDS011;4799;50.996;4.754;2023-05-10T12:12:36;4.03;;;3.70;;
8861;SDS011;4799;50.996;4.754;2023-05-10T12:15:03;3.87;;;3.57;;
8861;SDS011;4799;50.996;4.754;2023-05-10T12:17:30;4.23;;;3.83;;
8861;SDS011;4799;50.996;4.754;2023-05-10T12:20:12;4.43;;;4.03;;
8861;SDS011;4799;50.996;4.754;2023-05-10T12:22:45;3.67;;;3.37;;
8861;SDS011;4799;50.996;4.754;2023-05-10T12:25:11;3.53;;;3.23;;
8861;SDS011;4799;50.996;4.754;2023-05-10T12:27:37;4.50;;;3.60;;
8861;SDS011;4799;50.996;4.754;2023-05-10T12:30:03;4.20;;;3.20;;
8861;SDS011;4799;50.996;4.754;2023-05-10T12:32:39;3.20;;;3.00;;
8861;SDS011;4799;50.996;4.754;2023-05-10T12:35:06;5.33;;;3.43;;
8861;SDS011;4799;50.996;4.754;2023-05-10T12:37:32;4.70;;;3.70;;
8861;SDS011;4799;50.996;4.754;2023-05-10T12:40:01;3.30;;;3.00;;
8861;SDS011;4799;50.996;4.754;2023-05-10T12:42:27;3.80;;;3.30;;
8861;SDS011;4799;50.996;4.754;2023-05-10T12:44:55;3.40;;;3.10;;
8861;SDS011;4799;50.996;4.754;2023-05-10T12:47:21;3.43;;;2.93;;
8861;SDS011;4799;50.996;4.754;2023-05-10T12:49:47;4.47;;;3.07;;
8861;SDS011;4799;50.996;4.754;2023-05-10T12:52:13;4.10;;;2.90;;
8861;SDS011;4799;50.996;4.754;2023-05-10T12:54:38;3.90;;;3.50;;
8861;SDS011;4799;50.996;4.754;2023-05-10T12:57:04;3.57;;;3.27;;
8861;SDS011;4799;50.996;4.754;2023-05-10T12:59:30;3.80;;;3.50;;
8861;SDS011;4799;50.996;4.754;2023-05-10T13:01:56;3.70;;;3.40;;
8861;SDS011;4799;50.996;4.754;2023-05-10T13:04:22;3.60;;;3.23;;
8861;SDS011;4799;50.996;4.754;2023-05-10T13:06:48;3.60;;;3.30;;
8861;SDS011;4799;50.996;4.754;2023-05-10T13:09:14;4.53;;;3.10;;
8861;SDS011;4799;50.996;4.754;2023-05-10T13:11:40;3.40;;;3.10;;
8861;SDS011;4799;50.996;4.754;2023-05-10T13:14:06;3.80;;;3.40;;
8861;SDS011;4799;50.996;4.754;2023-05-10T13:16:32;4.50;;;3.50;;
8861;SDS011;4799;50.996;4.754;2023-05-10T13:18:58;3.60;;;3.30;;
8861;SDS011;4799;50.996;4.754;2023-05-10T13:21:23;3.70;;;3.40;;
8861;SDS011;4799;50.996;4.754;2023-05-10T13:23:50;3.43;;;3.13;;
8861;SDS011;4799;50.996;4.754;2023-05-10T13:26:16;3.67;;;3.33;;
8861;SDS011;4799;50.996;4.754;2023-05-10T13:28:43;3.50;;;3.20;;
8861;SDS011;4799;50.996;4.754;2023-05-10T13:31:08;4.27;;;2.93;;
8861;SDS011;4799;50.996;4.754;2023-05-10T13:33:34;3.50;;;3.20;;
8861;SDS011;4799;50.996;4.754;2023-05-10T13:36:00;4.00;;;3.30;;
8861;SDS011;4799;50.996;4.754;2023-05-10T13:38:26;3.67;;;3.37;;
8861;SDS011;4799;50.996;4.754;2023-05-10T13:40:51;3.60;;;3.30;;
8861;SDS011;4799;50.996;4.754;2023-05-10T13:43:18;4.33;;;3.63;;
8861;SDS011;4799;50.996;4.754;2023-05-10T13:45:44;4.07;;;3.50;;
8861;SDS011;4799;50.996;4.754;2023-05-10T13:48:10;3.70;;;3.20;;
8861;SDS011;4799;50.996;4.754;2023-05-10T13:50:35;3.67;;;3.37;;
8861;SDS011;4799;50.996;4.754;2023-05-10T13:53:01;3.93;;;3.33;;
8861;SDS011;4799;50.996;4.754;2023-05-10T13:55:27;3.37;;;3.07;;
8861;SDS011;4799;50.996;4.754;2023-05-10T13:57:53;3.60;;;3.30;;
8861;SDS011;4799;50.996;4.754;2023-05-10T14:00:19;3.77;;;3.30;;
8861;SDS011;4799;50.996;4.754;2023-05-10T14:02:45;4.10;;;3.70;;
8861;SDS011;4799;50.996;4.754;2023-05-10T14:05:10;3.60;;;3.30;;
8861;SDS011;4799;50.996;4.754;2023-05-10T14:07:36;4.70;;;4.30;;
8861;SDS011;4799;50.996;4.754;2023-05-10T14:10:02;4.47;;;4.07;;
8861;SDS011;4799;50.996;4.754;2023-05-10T14:12:28;5.03;;;4.50;;
8861;SDS011;4799;50.996;4.754;2023-05-10T14:14:54;7.20;;;4.73;;
8861;SDS011;4799;50.996;4.754;2023-05-10T14:17:19;4.53;;;4.07;;
8861;SDS011;4799;50.996;4.754;2023-05-10T14:19:45;4.57;;;4.17;;
8861;SDS011;4799;50.996;4.754;2023-05-10T14:22:11;4.27;;;3.97;;
8861;SDS011;4799;50.996;4.754;2023-05-10T14:24:37;5.57;;;5.07;;
8861;SDS011;4799;50.996;4.754;2023-05-10T14:27:03;5.97;;;5.37;;
8861;SDS011;4799;50.996;4.754;2023-05-10T14:29:29;5.83;;;5.03;;
8861;SDS011;4799;50.996;4.754;2023-05-10T14:31:54;5.40;;;4.90;;
8861;SDS011;4799;50.996;4.754;2023-05-10T14:34:20;6.37;;;5.33;;
8861;SDS011;4799;50.996;4.754;2023-05-10T14:36:46;5.83;;;5.00;;
8861;SDS011;4799;50.996;4.754;2023-05-10T14:39:12;6.07;;;5.33;;
8861;SDS011;4799;50.996;4.754;2023-05-10T14:41:38;5.07;;;4.57;;
8861;SDS011;4799;50.996;4.754;2023-05-10T14:44:06;5.10;;;4.60;;
8861;SDS011;4799;50.996;4.754;2023-05-10T14:46:32;5.47;;;4.10;;
8861;SDS011;4799;50.996;4.754;2023-05-10T14:48:59;4.63;;;4.03;;
8861;SDS011;4799;50.996;4.754;2023-05-10T14:51:25;5.47;;;4.87;;
8861;SDS011;4799;50.996;4.754;2023-05-10T14:53:50;5.70;;;4.73;;
8861;SDS011;4799;50.996;4.754;2023-05-10T14:56:16;4.90;;;4.47;;
8861;SDS011;4799;50.996;4.754;2023-05-10T14:58:42;5.27;;;4.60;;
8861;SDS011;4799;50.996;4.754;2023-05-10T15:01:07;5.60;;;4.93;;
8861;SDS011;4799;50.996;4.754;2023-05-10T15:03:33;5.33;;;4.80;;
8861;SDS011;4799;50.996;4.754;2023-05-10T15:05:59;5.43;;;4.60;;
8861;SDS011;4799;50.996;4.754;2023-05-10T15:08:25;5.37;;;4.70;;
8861;SDS011;4799;50.996;4.754;2023-05-10T15:10:51;5.37;;;4.87;;
8861;SDS011;4799;50.996;4.754;2023-05-10T15:13:16;5.40;;;4.90;;
8861;SDS011;4799;50.996;4.754;2023-05-10T15:15:42;5.63;;;5.03;;
8861;SDS011;4799;50.996;4.754;2023-05-10T15:18:08;5.13;;;4.63;;
8861;SDS011;4799;50.996;4.754;2023-05-10T15:20:35;9.63;;;6.00;;
8861;SDS011;4799;50.996;4.754;2023-05-10T15:23:01;7.63;;;6.83;;
8861;SDS011;4799;50.996;4.754;2023-05-10T15:25:26;7.37;;;6.77;;
8861;SDS011;4799;50.996;4.754;2023-05-10T15:27:53;8.13;;;7.37;;
8861;SDS011;4799;50.996;4.754;2023-05-10T15:30:19;8.87;;;8.00;;
8861;SDS011;4799;50.996;4.754;2023-05-10T15:32:45;8.50;;;7.77;;
8861;SDS011;4799;50.996;4.754;2023-05-10T15:35:11;9.03;;;7.53;;
8861;SDS011;4799;50.996;4.754;2023-05-10T15:37:37;8.60;;;7.80;;
8861;SDS011;4799;50.996;4.754;2023-05-10T15:40:03;8.77;;;7.87;;
8861;SDS011;4799;50.996;4.754;2023-05-10T15:42:29;8.40;;;7.60;;